• Join FlightAware (Why Join?)
  • Login
  • US Flag 
01:05AM EDT


 

Airport Tracker/Info


-or-


 

Live Flight TrackerFlight Track Log ✈ RLI811 ✈ 02-Jul-2013 ✈ KACK - KDXR

Flight Track Log - Related Links

Times and Time Zones

All times are in EDT time to prevent confusion due to time zone crossing. See the RLI811 flight status page for this flight to view local times or setup timezone preferences in your user account.

Time Position Orientation Groundspeed Altitude Reporting Facility
EDT Latitude Longitude Course Direction KTS MPH feet Rate Location/Type
02:54PM 41.2542 -70.7614 268° West 167 192 5,900  Level Boston Center
02:55PM 41.2528 -70.8083 268° West 167 192 5,900  Level Boston Center
02:56PM 41.2475 -70.8692 263° West 169 194 5,900  Level Boston Center
02:57PM 41.2419 -70.9300 269° West 167 192 5,900  Level Boston Center
02:58PM 41.2344 -70.9908 261° West 167 192 5,900  Level Boston Center
02:59PM 41.2247 -71.0575 259° West 169 194 5,900  Level Boston Center
03:00PM 41.2194 -71.1183 263° West 167 192 5,900  Level Boston Center
03:01PM 41.2139 -71.1819 263° West 169 194 5,900  Level Boston Center
03:02PM 41.2083 -71.2428 263° West 168 193 5,900  Level Boston Center
03:03PM 41.2006 -71.3036 260° West 169 194 5,900  Level Boston Center
03:04PM 41.1928 -71.3644 260° West 169 194 5,900  Level Boston Center
03:05PM 41.1872 -71.4306 264° West 169 194 5,900  Level Boston Center
03:06PM 41.1814 -71.4914 263° West 169 194 5,900  Level Boston Center
03:07PM 41.1714 -71.5550 258° West 170 196 5,900  Level Boston Center
03:08PM 41.1636 -71.6156 260° West 167 192 5,900  Level Boston Center
03:09PM 41.1661 -71.6792 273° West 171 197 5,900  Level Boston Center
03:10PM 41.1644 -71.7425 268° West 170 196 5,900  Level Boston Center
03:11PM 41.1647 -71.8031 270° West 175 201 5,900  Level Boston Center
03:12PM 41.1653 -71.8722 271° West 169 194 5,900  Level Boston Center
03:13PM 41.1633 -71.9328 268° West 169 194 5,900  Level Boston Center
03:15PM 41.1667 -72.0500 272° West 171 197 5,900  Level New York TRACON
03:16PM 41.1667 -72.1000 270° West 172 198 5,900  Level New York TRACON
03:17PM 41.1667 -72.1667 270° West 175 201 5,900  Level New York TRACON
03:18PM 41.1667 -72.2333 270° West 174 200 5,900  Level New York TRACON
03:19PM 41.1500 -72.3000 252° West 173 199 5,900  Level New York TRACON
03:20PM 41.1500 -72.3667 270° West 172 198 5,900  Level New York TRACON
03:21PM 41.1500 -72.4333 270° West 175 201 5,900  Level New York TRACON
03:22PM 41.1500 -72.5000 270° West 177 204 5,900  Level New York TRACON
03:23PM 41.1500 -72.5667 270° West 178 205 5,900  Level New York TRACON
03:24PM 41.1500 -72.6167 270° West 177 204 5,900  Level New York TRACON
03:25PM 41.1500 -72.6833 270° West 178 205 5,900  Level New York TRACON
03:26PM 41.1667 -72.7500 288° West 179 206 5,900  Level New York TRACON
03:27PM 41.1667 -72.8167 270° West 178 205 5,900  Level New York TRACON
03:28PM 41.1667 -72.8833 270° West 177 204 5,900  Level New York TRACON
03:29PM 41.1667 -72.9500 270° West 178 205 5,900  Level New York TRACON
03:30PM 41.1667 -73.0167 270° West 177 204 5,900  Level New York TRACON
03:31PM 41.1667 -73.0833 270° West 174 200 5,900 -300 Level New York TRACON
03:32PM 41.1667 -73.1333 270° West 176 203 5,400 -600 Descending New York TRACON
03:33PM 41.1667 -73.2000 270° West 177 204 4,700 -720 Descending New York TRACON
03:34PM 41.1667 -73.2667 270° West 174 200 4,000 -420 Descending New York TRACON
03:35PM 41.1833 -73.3333 288° West 151 174 3,900 -240 Descending New York TRACON
03:36PM 41.1833 -73.3833 270° West 131 151 3,600 -540 Descending New York TRACON
03:37PM 41.1833 -73.4333 270° West 139 160 2,900 -360 Descending New York TRACON
03:38PM 41.2000 -73.4667 304° West 142 163 2,900 -540 Level New York TRACON
03:39PM 41.2333 -73.5000 323° Northwest 166 191 1,900 -480 Descending New York TRACON
03:40PM 41.2667 -73.5167 339° North 161 185 2,000  Climbing New York TRACON
03:41PM 41.3167 -73.5333 346° North 157 181 2,000 -120 Level New York TRACON
03:42PM 41.3500 -73.5000 37° Northeast 141 162 1,800 -240 Descending New York TRACON
03:43PM 41.3833 -73.5167 339° North 130 150 1,600 -240 Descending New York TRACON
03:45PM 41.3715 -73.4822 14° North  Level Estimated
03:52PM 41.3715 -73.4822 14° North  Level Estimated
03:53PM 41.3715 -73.4822 14° North  Level Estimated
03:54PM 41.3715 -73.4822 14° North  Level Estimated
03:55PM 41.3715 -73.4822 14° North  Level Estimated